sensor_id;sensor_type;location;lat;lon;timestamp;temperature;humidity
53498;DHT22;39382;47.168;16.008;2024-01-30T00:02:19;-3.50;99.90
53498;DHT22;39382;47.168;16.008;2024-01-30T00:04:44;-3.60;99.90
53498;DHT22;39382;47.168;16.008;2024-01-30T00:07:10;-3.60;99.90
53498;DHT22;39382;47.168;16.008;2024-01-30T00:09:36;-3.50;99.90
53498;DHT22;39382;47.168;16.008;2024-01-30T00:12:01;-3.50;99.90
53498;DHT22;39382;47.168;16.008;2024-01-30T00:14:27;-3.50;99.90
53498;DHT22;39382;47.168;16.008;2024-01-30T00:16:53;-3.60;99.90
53498;DHT22;39382;47.168;16.008;2024-01-30T00:19:18;-3.60;99.90
53498;DHT22;39382;47.168;16.008;2024-01-30T00:21:44;-3.60;99.90
53498;DHT22;39382;47.168;16.008;2024-01-30T00:24:10;-3.60;99.90
53498;DHT22;39382;47.168;16.008;2024-01-30T00:26:35;-3.70;99.90
53498;DHT22;39382;47.168;16.008;2024-01-30T00:29:01;-3.70;99.90
53498;DHT22;39382;47.168;16.008;2024-01-30T00:31:27;-3.80;99.90
53498;DHT22;39382;47.168;16.008;2024-01-30T00:33:52;-3.80;99.90
53498;DHT22;39382;47.168;16.008;2024-01-30T00:36:18;-3.70;99.90
53498;DHT22;39382;47.168;16.008;2024-01-30T00:38:44;-3.70;99.90
53498;DHT22;39382;47.168;16.008;2024-01-30T00:41:09;-3.70;99.90
53498;DHT22;39382;47.168;16.008;2024-01-30T00:43:36;-3.60;99.90
53498;DHT22;39382;47.168;16.008;2024-01-30T00:46:02;-3.60;99.90
53498;DHT22;39382;47.168;16.008;2024-01-30T00:48:27;-3.60;99.90
53498;DHT22;39382;47.168;16.008;2024-01-30T00:50:53;-3.60;99.90
53498;DHT22;39382;47.168;16.008;2024-01-30T00:53:19;-3.60;99.90
53498;DHT22;39382;47.168;16.008;2024-01-30T00:55:44;-3.70;99.90
53498;DHT22;39382;47.168;16.008;2024-01-30T00:58:10;-3.70;99.90
53498;DHT22;39382;47.168;16.008;2024-01-30T01:00:35;-3.70;99.90
53498;DHT22;39382;47.168;16.008;2024-01-30T01:03:01;-3.70;99.90
53498;DHT22;39382;47.168;16.008;2024-01-30T01:05:27;-3.80;99.90
53498;DHT22;39382;47.168;16.008;2024-01-30T01:07:53;-3.70;99.90
53498;DHT22;39382;47.168;16.008;2024-01-30T01:10:19;-3.70;99.90
53498;DHT22;39382;47.168;16.008;2024-01-30T01:12:45;-3.70;99.90
53498;DHT22;39382;47.168;16.008;2024-01-30T01:15:11;-3.60;99.90
53498;DHT22;39382;47.168;16.008;2024-01-30T01:17:38;-3.60;99.90
53498;DHT22;39382;47.168;16.008;2024-01-30T01:20:04;-3.60;99.90
53498;DHT22;39382;47.168;16.008;2024-01-30T01:22:32;-3.60;99.90
53498;DHT22;39382;47.168;16.008;2024-01-30T01:24:58;-3.70;99.90
53498;DHT22;39382;47.168;16.008;2024-01-30T01:27:24;-3.70;99.90
53498;DHT22;39382;47.168;16.008;2024-01-30T01:29:50;-3.80;99.90
53498;DHT22;39382;47.168;16.008;2024-01-30T01:32:16;-3.80;99.90
53498;DHT22;39382;47.168;16.008;2024-01-30T01:34:42;-3.80;99.90
53498;DHT22;39382;47.168;16.008;2024-01-30T01:37:08;-3.90;99.90
53498;DHT22;39382;47.168;16.008;2024-01-30T01:39:33;-3.90;99.90
53498;DHT22;39382;47.168;16.008;2024-01-30T01:41:59;-3.90;99.90
53498;DHT22;39382;47.168;16.008;2024-01-30T01:44:25;-3.90;99.90
53498;DHT22;39382;47.168;16.008;2024-01-30T01:46:51;-3.90;99.90
53498;DHT22;39382;47.168;16.008;2024-01-30T01:49:18;-3.90;99.90
53498;DHT22;39382;47.168;16.008;2024-01-30T01:51:45;-3.90;99.90
53498;DHT22;39382;47.168;16.008;2024-01-30T01:54:12;-3.90;99.90
53498;DHT22;39382;47.168;16.008;2024-01-30T01:56:39;-4.00;99.90
53498;DHT22;39382;47.168;16.008;2024-01-30T01:59:07;-4.00;99.90
53498;DHT22;39382;47.168;16.008;2024-01-30T02:01:34;-4.10;99.90
53498;DHT22;39382;47.168;16.008;2024-01-30T02:04:00;-4.10;99.90
53498;DHT22;39382;47.168;16.008;2024-01-30T02:06:27;-4.10;99.90
53498;DHT22;39382;47.168;16.008;2024-01-30T02:08:53;-4.10;99.90
53498;DHT22;39382;47.168;16.008;2024-01-30T02:11:20;-4.20;99.90
53498;DHT22;39382;47.168;16.008;2024-01-30T02:13:46;-4.20;99.90
53498;DHT22;39382;47.168;16.008;2024-01-30T02:16:11;-4.30;99.90
53498;DHT22;39382;47.168;16.008;2024-01-30T02:18:37;-4.20;99.90
53498;DHT22;39382;47.168;16.008;2024-01-30T02:21:07;-4.20;99.90
53498;DHT22;39382;47.168;16.008;2024-01-30T02:23:33;-4.10;99.90
53498;DHT22;39382;47.168;16.008;2024-01-30T02:25:59;-4.10;99.90
53498;DHT22;39382;47.168;16.008;2024-01-30T02:28:25;-4.10;99.90
53498;DHT22;39382;47.168;16.008;2024-01-30T02:30:51;-4.10;99.90
53498;DHT22;39382;47.168;16.008;2024-01-30T02:33:17;-4.10;99.90
53498;DHT22;39382;47.168;16.008;2024-01-30T02:35:42;-4.10;99.90
53498;DHT22;39382;47.168;16.008;2024-01-30T02:38:08;-4.10;99.90
53498;DHT22;39382;47.168;16.008;2024-01-30T02:40:34;-4.20;99.90
53498;DHT22;39382;47.168;16.008;2024-01-30T02:43:01;-4.20;99.90
53498;DHT22;39382;47.168;16.008;2024-01-30T02:45:27;-4.20;99.90
53498;DHT22;39382;47.168;16.008;2024-01-30T02:47:52;-4.30;99.90
53498;DHT22;39382;47.168;16.008;2024-01-30T02:50:18;-4.30;99.90
53498;DHT22;39382;47.168;16.008;2024-01-30T02:52:44;-4.30;99.90
53498;DHT22;39382;47.168;16.008;2024-01-30T02:55:10;-4.30;99.90
53498;DHT22;39382;47.168;16.008;2024-01-30T02:57:36;-4.30;99.90
53498;DHT22;39382;47.168;16.008;2024-01-30T03:00:02;-4.40;99.90
53498;DHT22;39382;47.168;16.008;2024-01-30T03:02:29;-4.40;99.90
53498;DHT22;39382;47.168;16.008;2024-01-30T03:04:54;-4.40;99.90
53498;DHT22;39382;47.168;16.008;2024-01-30T03:07:20;-4.40;99.90
53498;DHT22;39382;47.168;16.008;2024-01-30T03:09:46;-4.40;99.90
53498;DHT22;39382;47.168;16.008;2024-01-30T03:12:11;-4.40;99.90
53498;DHT22;39382;47.168;16.008;2024-01-30T03:14:37;-4.50;99.90
53498;DHT22;39382;47.168;16.008;2024-01-30T03:17:03;-4.50;99.90
53498;DHT22;39382;47.168;16.008;2024-01-30T03:19:28;-4.50;99.90
53498;DHT22;39382;47.168;16.008;2024-01-30T03:21:54;-4.50;99.90
53498;DHT22;39382;47.168;16.008;2024-01-30T03:24:20;-4.60;99.90
53498;DHT22;39382;47.168;16.008;2024-01-30T03:26:45;-4.60;99.90
53498;DHT22;39382;47.168;16.008;2024-01-30T03:29:11;-4.60;99.90
53498;DHT22;39382;47.168;16.008;2024-01-30T03:31:37;-4.60;99.90
53498;DHT22;39382;47.168;16.008;2024-01-30T03:34:02;-4.60;99.90
53498;DHT22;39382;47.168;16.008;2024-01-30T03:36:28;-4.70;99.90
53498;DHT22;39382;47.168;16.008;2024-01-30T03:38:54;-4.70;99.90
53498;DHT22;39382;47.168;16.008;2024-01-30T03:41:19;-4.70;99.90
53498;DHT22;39382;47.168;16.008;2024-01-30T03:43:46;-4.70;99.90
53498;DHT22;39382;47.168;16.008;2024-01-30T03:46:12;-4.70;99.90
53498;DHT22;39382;47.168;16.008;2024-01-30T03:48:38;-4.70;99.90
53498;DHT22;39382;47.168;16.008;2024-01-30T03:51:04;-4.60;99.90
53498;DHT22;39382;47.168;16.008;2024-01-30T03:53:30;-4.70;99.90
53498;DHT22;39382;47.168;16.008;2024-01-30T03:55:56;-4.70;99.90
53498;DHT22;39382;47.168;16.008;2024-01-30T03:58:22;-4.70;99.90
53498;DHT22;39382;47.168;16.008;2024-01-30T04:00:47;-4.70;99.90
53498;DHT22;39382;47.168;16.008;2024-01-30T04:03:14;-4.80;99.90
53498;DHT22;39382;47.168;16.008;2024-01-30T04:05:41;-4.70;99.90
53498;DHT22;39382;47.168;16.008;2024-01-30T04:08:07;-4.80;99.90
53498;DHT22;39382;47.168;16.008;2024-01-30T04:10:33;-4.70;99.90
53498;DHT22;39382;47.168;16.008;2024-01-30T04:12:58;-4.70;99.90
53498;DHT22;39382;47.168;16.008;2024-01-30T04:15:25;-4.70;99.90
53498;DHT22;39382;47.168;16.008;2024-01-30T04:17:51;-4.80;99.90
53498;DHT22;39382;47.168;16.008;2024-01-30T04:20:17;-4.70;99.90
53498;DHT22;39382;47.168;16.008;2024-01-30T04:22:46;-4.70;99.90
53498;DHT22;39382;47.168;16.008;2024-01-30T04:25:13;-4.70;99.90
53498;DHT22;39382;47.168;16.008;2024-01-30T04:27:39;-4.70;99.90
53498;DHT22;39382;47.168;16.008;2024-01-30T04:30:05;-4.70;99.90
53498;DHT22;39382;47.168;16.008;2024-01-30T04:32:32;-4.60;99.90
53498;DHT22;39382;47.168;16.008;2024-01-30T04:34:57;-4.60;99.90
53498;DHT22;39382;47.168;16.008;2024-01-30T04:37:23;-4.60;99.90
53498;DHT22;39382;47.168;16.008;2024-01-30T04:39:50;-4.60;99.90
53498;DHT22;39382;47.168;16.008;2024-01-30T04:42:16;-4.60;99.90
53498;DHT22;39382;47.168;16.008;2024-01-30T04:44:41;-4.60;99.90
53498;DHT22;39382;47.168;16.008;2024-01-30T04:47:07;-4.60;99.90
53498;DHT22;39382;47.168;16.008;2024-01-30T04:49:34;-4.60;99.90
53498;DHT22;39382;47.168;16.008;2024-01-30T04:52:00;-4.60;99.90
53498;DHT22;39382;47.168;16.008;2024-01-30T04:54:26;-4.70;99.90
53498;DHT22;39382;47.168;16.008;2024-01-30T04:56:51;-4.70;99.90
53498;DHT22;39382;47.168;16.008;2024-01-30T04:59:17;-4.70;99.90
53498;DHT22;39382;47.168;16.008;2024-01-30T05:01:43;-4.80;99.90
53498;DHT22;39382;47.168;16.008;2024-01-30T05:04:09;-4.80;99.90
53498;DHT22;39382;47.168;16.008;2024-01-30T05:06:34;-4.80;99.90
53498;DHT22;39382;47.168;16.008;2024-01-30T05:09:00;-4.90;99.90
53498;DHT22;39382;47.168;16.008;2024-01-30T05:11:26;-5.00;99.90
53498;DHT22;39382;47.168;16.008;2024-01-30T05:13:52;-5.00;99.90
53498;DHT22;39382;47.168;16.008;2024-01-30T05:16:17;-5.00;99.90
53498;DHT22;39382;47.168;16.008;2024-01-30T05:18:43;-5.10;99.90
53498;DHT22;39382;47.168;16.008;2024-01-30T05:21:10;-5.10;99.90
53498;DHT22;39382;47.168;16.008;2024-01-30T05:23:36;-5.10;99.90
53498;DHT22;39382;47.168;16.008;2024-01-30T05:26:01;-5.20;99.90
53498;DHT22;39382;47.168;16.008;2024-01-30T05:28:29;-5.20;99.90
53498;DHT22;39382;47.168;16.008;2024-01-30T05:30:55;-5.20;99.90
53498;DHT22;39382;47.168;16.008;2024-01-30T05:33:21;-5.20;99.90
53498;DHT22;39382;47.168;16.008;2024-01-30T05:35:47;-5.20;99.90
53498;DHT22;39382;47.168;16.008;2024-01-30T05:38:15;-5.20;99.90
53498;DHT22;39382;47.168;16.008;2024-01-30T05:40:40;-5.20;99.90
53498;DHT22;39382;47.168;16.008;2024-01-30T05:43:06;-5.20;99.90
53498;DHT22;39382;47.168;16.008;2024-01-30T05:45:33;-5.20;99.90
53498;DHT22;39382;47.168;16.008;2024-01-30T05:48:00;-5.20;99.90
53498;DHT22;39382;47.168;16.008;2024-01-30T05:50:26;-5.20;99.90
53498;DHT22;39382;47.168;16.008;2024-01-30T05:52:52;-5.20;99.90
53498;DHT22;39382;47.168;16.008;2024-01-30T05:55:18;-5.20;99.90
53498;DHT22;39382;47.168;16.008;2024-01-30T05:57:43;-5.20;99.90
53498;DHT22;39382;47.168;16.008;2024-01-30T06:00:09;-5.20;99.90
53498;DHT22;39382;47.168;16.008;2024-01-30T06:02:35;-5.20;99.90
53498;DHT22;39382;47.168;16.008;2024-01-30T06:05:01;-5.20;99.90
53498;DHT22;39382;47.168;16.008;2024-01-30T06:07:26;-5.10;99.90
53498;DHT22;39382;47.168;16.008;2024-01-30T06:09:52;-5.20;99.90
53498;DHT22;39382;47.168;16.008;2024-01-30T06:12:18;-5.30;99.90
53498;DHT22;39382;47.168;16.008;2024-01-30T06:14:43;-5.30;99.90
53498;DHT22;39382;47.168;16.008;2024-01-30T06:17:09;-5.30;99.90
53498;DHT22;39382;47.168;16.008;2024-01-30T06:19:35;-5.30;99.90
53498;DHT22;39382;47.168;16.008;2024-01-30T06:22:00;-5.30;99.90
53498;DHT22;39382;47.168;16.008;2024-01-30T06:24:26;-5.30;99.90
53498;DHT22;39382;47.168;16.008;2024-01-30T06:26:53;-5.30;99.90
53498;DHT22;39382;47.168;16.008;2024-01-30T06:29:18;-5.30;99.90
53498;DHT22;39382;47.168;16.008;2024-01-30T06:31:44;-5.30;99.90
53498;DHT22;39382;47.168;16.008;2024-01-30T06:34:10;-4.00;99.90
53498;DHT22;39382;47.168;16.008;2024-01-30T06:36:37;-4.40;99.90
53498;DHT22;39382;47.168;16.008;2024-01-30T06:39:03;-4.60;99.90
53498;DHT22;39382;47.168;16.008;2024-01-30T06:41:29;-4.80;99.90
53498;DHT22;39382;47.168;16.008;2024-01-30T06:43:55;-4.90;99.90
53498;DHT22;39382;47.168;16.008;2024-01-30T06:46:21;-5.00;99.90
53498;DHT22;39382;47.168;16.008;2024-01-30T06:48:47;-5.10;99.90
53498;DHT22;39382;47.168;16.008;2024-01-30T06:51:12;-5.00;99.90
53498;DHT22;39382;47.168;16.008;2024-01-30T06:53:38;-5.00;99.90
53498;DHT22;39382;47.168;16.008;2024-01-30T06:56:04;-5.00;99.90
53498;DHT22;39382;47.168;16.008;2024-01-30T06:58:30;-5.00;99.90
53498;DHT22;39382;47.168;16.008;2024-01-30T07:00:56;-5.00;99.90
53498;DHT22;39382;47.168;16.008;2024-01-30T07:03:22;-5.00;99.90
53498;DHT22;39382;47.168;16.008;2024-01-30T07:05:48;-4.90;99.90
53498;DHT22;39382;47.168;16.008;2024-01-30T07:08:15;-4.80;99.90
53498;DHT22;39382;47.168;16.008;2024-01-30T07:10:43;-4.80;99.90
53498;DHT22;39382;47.168;16.008;2024-01-30T07:13:08;-4.60;99.90
53498;DHT22;39382;47.168;16.008;2024-01-30T07:15:35;-4.60;99.90
53498;DHT22;39382;47.168;16.008;2024-01-30T07:18:02;-4.50;99.90
53498;DHT22;39382;47.168;16.008;2024-01-30T07:20:28;-4.40;99.90
53498;DHT22;39382;47.168;16.008;2024-01-30T07:22:56;-4.40;99.90
53498;DHT22;39382;47.168;16.008;2024-01-30T07:25:21;-4.30;99.90
53498;DHT22;39382;47.168;16.008;2024-01-30T07:27:52;-4.20;99.90
53498;DHT22;39382;47.168;16.008;2024-01-30T07:30:18;-4.20;99.90
53498;DHT22;39382;47.168;16.008;2024-01-30T07:32:44;-4.10;99.90
53498;DHT22;39382;47.168;16.008;2024-01-30T07:35:09;-4.00;99.90
53498;DHT22;39382;47.168;16.008;2024-01-30T07:37:35;-3.90;99.90
53498;DHT22;39382;47.168;16.008;2024-01-30T07:40:01;-3.80;99.90
53498;DHT22;39382;47.168;16.008;2024-01-30T07:42:27;-3.70;99.90
53498;DHT22;39382;47.168;16.008;2024-01-30T07:44:53;-3.50;99.90
53498;DHT22;39382;47.168;16.008;2024-01-30T07:47:19;-3.50;99.90
53498;DHT22;39382;47.168;16.008;2024-01-30T07:49:44;-3.50;99.90
53498;DHT22;39382;47.168;16.008;2024-01-30T07:52:10;-3.50;99.90
53498;DHT22;39382;47.168;16.008;2024-01-30T07:57:58;-3.40;99.90
53498;DHT22;39382;47.168;16.008;2024-01-30T08:00:26;-3.30;99.90
53498;DHT22;39382;47.168;16.008;2024-01-30T08:02:54;-3.30;99.90
53498;DHT22;39382;47.168;16.008;2024-01-30T08:05:21;-3.20;99.90
53498;DHT22;39382;47.168;16.008;2024-01-30T08:07:48;-3.10;99.90
53498;DHT22;39382;47.168;16.008;2024-01-30T08:10:14;-3.10;99.90
53498;DHT22;39382;47.168;16.008;2024-01-30T08:12:41;-3.00;99.90
53498;DHT22;39382;47.168;16.008;2024-01-30T08:15:07;-2.90;99.90
53498;DHT22;39382;47.168;16.008;2024-01-30T08:17:33;-2.90;99.90
53498;DHT22;39382;47.168;16.008;2024-01-30T08:19:59;-2.80;99.90
53498;DHT22;39382;47.168;16.008;2024-01-30T08:22:25;-2.70;99.90
53498;DHT22;39382;47.168;16.008;2024-01-30T08:24:50;-2.60;99.90
53498;DHT22;39382;47.168;16.008;2024-01-30T08:27:16;-2.50;99.90
53498;DHT22;39382;47.168;16.008;2024-01-30T08:29:41;-2.40;99.90
53498;DHT22;39382;47.168;16.008;2024-01-30T08:32:07;-2.40;99.90
53498;DHT22;39382;47.168;16.008;2024-01-30T08:34:33;-2.30;99.90
53498;DHT22;39382;47.168;16.008;2024-01-30T08:36:59;-2.20;99.90
53498;DHT22;39382;47.168;16.008;2024-01-30T08:39:24;-2.10;99.90
53498;DHT22;39382;47.168;16.008;2024-01-30T08:41:50;-2.00;99.90
53498;DHT22;39382;47.168;16.008;2024-01-30T08:44:16;-1.70;99.90
53498;DHT22;39382;47.168;16.008;2024-01-30T08:46:43;-1.80;99.90
53498;DHT22;39382;47.168;16.008;2024-01-30T08:49:10;-1.80;99.90
53498;DHT22;39382;47.168;16.008;2024-01-30T08:51:36;-1.60;99.90
53498;DHT22;39382;47.168;16.008;2024-01-30T08:54:02;-1.50;99.90
53498;DHT22;39382;47.168;16.008;2024-01-30T08:56:28;-1.50;99.90
53498;DHT22;39382;47.168;16.008;2024-01-30T08:58:54;-1.50;99.90
53498;DHT22;39382;47.168;16.008;2024-01-30T09:01:19;-1.40;99.90
53498;DHT22;39382;47.168;16.008;2024-01-30T09:03:45;-1.20;99.90
53498;DHT22;39382;47.168;16.008;2024-01-30T09:06:15;-0.60;99.90
53498;DHT22;39382;47.168;16.008;2024-01-30T09:08:40;-0.90;99.90
53498;DHT22;39382;47.168;16.008;2024-01-30T09:11:11;-0.90;99.90
53498;DHT22;39382;47.168;16.008;2024-01-30T09:13:36;-0.80;99.90
53498;DHT22;39382;47.168;16.008;2024-01-30T09:16:03;-0.80;99.90
53498;DHT22;39382;47.168;16.008;2024-01-30T09:18:28;-0.70;99.90
53498;DHT22;39382;47.168;16.008;2024-01-30T09:20:54;-0.30;99.90
53498;DHT22;39382;47.168;16.008;2024-01-30T09:23:20;-0.10;99.90
53498;DHT22;39382;47.168;16.008;2024-01-30T09:25:45;-0.30;99.90
53498;DHT22;39382;47.168;16.008;2024-01-30T09:28:11;-0.20;99.90
53498;DHT22;39382;47.168;16.008;2024-01-30T09:30:36;-0.10;99.90
53498;DHT22;39382;47.168;16.008;2024-01-30T09:33:02;0.00;99.90
53498;DHT22;39382;47.168;16.008;2024-01-30T09:35:28;0.20;99.90
53498;DHT22;39382;47.168;16.008;2024-01-30T09:37:55;0.30;99.90
53498;DHT22;39382;47.168;16.008;2024-01-30T09:40:21;0.20;99.90
53498;DHT22;39382;47.168;16.008;2024-01-30T09:42:47;0.50;99.90
53498;DHT22;39382;47.168;16.008;2024-01-30T09:45:17;0.50;99.90
53498;DHT22;39382;47.168;16.008;2024-01-30T09:47:44;0.70;99.90
53498;DHT22;39382;47.168;16.008;2024-01-30T09:50:12;0.70;99.90
53498;DHT22;39382;47.168;16.008;2024-01-30T09:52:38;0.80;99.90
53498;DHT22;39382;47.168;16.008;2024-01-30T09:55:04;0.80;99.90
53498;DHT22;39382;47.168;16.008;2024-01-30T09:57:31;1.00;99.90
53498;DHT22;39382;47.168;16.008;2024-01-30T09:59:57;1.30;99.90
53498;DHT22;39382;47.168;16.008;2024-01-30T10:02:23;1.20;99.90
53498;DHT22;39382;47.168;16.008;2024-01-30T10:04:50;1.30;99.90
53498;DHT22;39382;47.168;16.008;2024-01-30T10:07:16;1.80;99.90
53498;DHT22;39382;47.168;16.008;2024-01-30T10:09:42;1.60;99.90
53498;DHT22;39382;47.168;16.008;2024-01-30T10:12:09;1.70;99.90
53498;DHT22;39382;47.168;16.008;2024-01-30T10:14:38;1.80;99.90
53498;DHT22;39382;47.168;16.008;2024-01-30T10:17:04;2.00;99.90
53498;DHT22;39382;47.168;16.008;2024-01-30T10:19:31;2.10;99.90
53498;DHT22;39382;47.168;16.008;2024-01-30T10:21:57;2.20;99.90
53498;DHT22;39382;47.168;16.008;2024-01-30T10:24:28;2.30;99.90
53498;DHT22;39382;47.168;16.008;2024-01-30T10:26:57;2.40;99.90
53498;DHT22;39382;47.168;16.008;2024-01-30T10:29:24;2.50;99.90
53498;DHT22;39382;47.168;16.008;2024-01-30T10:32:03;2.60;99.90
53498;DHT22;39382;47.168;16.008;2024-01-30T10:34:30;3.20;99.90
53498;DHT22;39382;47.168;16.008;2024-01-30T10:37:09;3.20;99.90
53498;DHT22;39382;47.168;16.008;2024-01-30T10:39:41;3.10;99.90
53498;DHT22;39382;47.168;16.008;2024-01-30T10:42:12;3.10;99.90
53498;DHT22;39382;47.168;16.008;2024-01-30T10:44:59;3.10;99.90
53498;DHT22;39382;47.168;16.008;2024-01-30T10:47:29;3.20;99.90
53498;DHT22;39382;47.168;16.008;2024-01-30T10:49:55;3.40;99.90
53498;DHT22;39382;47.168;16.008;2024-01-30T10:52:23;3.50;99.90
53498;DHT22;39382;47.168;16.008;2024-01-30T10:54:51;3.30;99.90
53498;DHT22;39382;47.168;16.008;2024-01-30T10:57:18;3.40;99.90
53498;DHT22;39382;47.168;16.008;2024-01-30T10:59:44;3.50;99.90
53498;DHT22;39382;47.168;16.008;2024-01-30T11:02:11;3.60;99.90
53498;DHT22;39382;47.168;16.008;2024-01-30T11:04:37;3.60;99.90
53498;DHT22;39382;47.168;16.008;2024-01-30T11:07:17;3.70;99.90
53498;DHT22;39382;47.168;16.008;2024-01-30T11:09:50;3.70;99.90
53498;DHT22;39382;47.168;16.008;2024-01-30T11:12:16;3.90;99.90
53498;DHT22;39382;47.168;16.008;2024-01-30T11:14:42;4.00;99.90
53498;DHT22;39382;47.168;16.008;2024-01-30T11:17:10;4.10;99.90
53498;DHT22;39382;47.168;16.008;2024-01-30T11:19:38;4.00;99.90
53498;DHT22;39382;47.168;16.008;2024-01-30T11:22:06;4.10;99.90
53498;DHT22;39382;47.168;16.008;2024-01-30T11:24:40;4.10;99.90
53498;DHT22;39382;47.168;16.008;2024-01-30T11:27:09;4.20;99.90
53498;DHT22;39382;47.168;16.008;2024-01-30T11:29:40;4.30;99.90
53498;DHT22;39382;47.168;16.008;2024-01-30T11:32:06;4.40;99.90
53498;DHT22;39382;47.168;16.008;2024-01-30T11:34:33;4.50;99.90
53498;DHT22;39382;47.168;16.008;2024-01-30T11:37:03;4.60;99.90
53498;DHT22;39382;47.168;16.008;2024-01-30T11:39:32;4.60;99.90
53498;DHT22;39382;47.168;16.008;2024-01-30T11:41:59;4.80;98.80
53498;DHT22;39382;47.168;16.008;2024-01-30T11:44:25;4.80;97.50
53498;DHT22;39382;47.168;16.008;2024-01-30T11:46:51;4.90;97.50
53498;DHT22;39382;47.168;16.008;2024-01-30T11:49:18;5.00;97.80
53498;DHT22;39382;47.168;16.008;2024-01-30T11:51:45;5.20;97.40
53498;DHT22;39382;47.168;16.008;2024-01-30T11:54:14;5.10;95.70
53498;DHT22;39382;47.168;16.008;2024-01-30T11:56:40;5.20;95.10
53498;DHT22;39382;47.168;16.008;2024-01-30T11:59:06;5.20;94.80
53498;DHT22;39382;47.168;16.008;2024-01-30T12:01:32;5.30;94.50
53498;DHT22;39382;47.168;16.008;2024-01-30T12:04:01;5.40;94.60
53498;DHT22;39382;47.168;16.008;2024-01-30T12:06:27;5.50;94.40
53498;DHT22;39382;47.168;16.008;2024-01-30T12:11:23;5.60;94.10
53498;DHT22;39382;47.168;16.008;2024-01-30T12:13:50;5.60;93.40
53498;DHT22;39382;47.168;16.008;2024-01-30T12:16:16;5.80;93.10
53498;DHT22;39382;47.168;16.008;2024-01-30T12:18:41;5.80;92.90
53498;DHT22;39382;47.168;16.008;2024-01-30T12:21:07;5.90;93.10
53498;DHT22;39382;47.168;16.008;2024-01-30T12:23:35;6.00;93.40
53498;DHT22;39382;47.168;16.008;2024-01-30T12:26:01;6.00;92.30
53498;DHT22;39382;47.168;16.008;2024-01-30T12:28:29;6.10;91.60
53498;DHT22;39382;47.168;16.008;2024-01-30T12:31:04;6.60;92.20
53498;DHT22;39382;47.168;16.008;2024-01-30T12:33:30;6.20;92.90
53498;DHT22;39382;47.168;16.008;2024-01-30T12:35:56;6.20;92.80
53498;DHT22;39382;47.168;16.008;2024-01-30T12:38:23;6.20;92.00
53498;DHT22;39382;47.168;16.008;2024-01-30T12:40:53;6.20;91.90
53498;DHT22;39382;47.168;16.008;2024-01-30T12:43:19;6.30;91.90
53498;DHT22;39382;47.168;16.008;2024-01-30T12:45:45;6.30;91.90
53498;DHT22;39382;47.168;16.008;2024-01-30T12:48:12;6.30;91.30
53498;DHT22;39382;47.168;16.008;2024-01-30T12:50:37;6.30;91.10
53498;DHT22;39382;47.168;16.008;2024-01-30T12:53:03;6.40;91.20
53498;DHT22;39382;47.168;16.008;2024-01-30T12:55:30;6.40;91.10
53498;DHT22;39382;47.168;16.008;2024-01-30T12:57:55;6.50;91.20
53498;DHT22;39382;47.168;16.008;2024-01-30T13:00:22;6.50;90.80
53498;DHT22;39382;47.168;16.008;2024-01-30T13:02:48;6.60;90.60
53498;DHT22;39382;47.168;16.008;2024-01-30T13:05:14;6.50;89.80
53498;DHT22;39382;47.168;16.008;2024-01-30T13:07:39;6.40;90.30
53498;DHT22;39382;47.168;16.008;2024-01-30T13:10:05;6.50;90.70
53498;DHT22;39382;47.168;16.008;2024-01-30T13:12:31;6.50;90.60
53498;DHT22;39382;47.168;16.008;2024-01-30T13:14:58;6.50;90.60
53498;DHT22;39382;47.168;16.008;2024-01-30T13:17:26;6.40;90.60
53498;DHT22;39382;47.168;16.008;2024-01-30T13:19:52;6.40;91.10
53498;DHT22;39382;47.168;16.008;2024-01-30T13:22:19;6.40;90.70
53498;DHT22;39382;47.168;16.008;2024-01-30T13:24:47;6.50;90.60
53498;DHT22;39382;47.168;16.008;2024-01-30T13:27:13;6.50;90.80
53498;DHT22;39382;47.168;16.008;2024-01-30T13:29:38;6.70;93.50
53498;DHT22;39382;47.168;16.008;2024-01-30T13:32:04;6.70;90.20
53498;DHT22;39382;47.168;16.008;2024-01-30T13:34:30;6.70;89.80
53498;DHT22;39382;47.168;16.008;2024-01-30T13:36:56;6.70;89.50
53498;DHT22;39382;47.168;16.008;2024-01-30T13:39:22;6.80;88.90
53498;DHT22;39382;47.168;16.008;2024-01-30T13:41:48;6.70;88.70
53498;DHT22;39382;47.168;16.008;2024-01-30T13:44:15;6.70;88.50
53498;DHT22;39382;47.168;16.008;2024-01-30T13:46:42;6.60;89.00
53498;DHT22;39382;47.168;16.008;2024-01-30T13:49:07;6.70;88.60
53498;DHT22;39382;47.168;16.008;2024-01-30T13:51:33;6.70;88.70
53498;DHT22;39382;47.168;16.008;2024-01-30T13:53:59;6.70;89.30
53498;DHT22;39382;47.168;16.008;2024-01-30T13:56:25;6.60;90.10
53498;DHT22;39382;47.168;16.008;2024-01-30T13:58:52;6.60;89.60
53498;DHT22;39382;47.168;16.008;2024-01-30T14:01:18;6.60;90.60
53498;DHT22;39382;47.168;16.008;2024-01-30T14:03:44;6.50;90.70
53498;DHT22;39382;47.168;16.008;2024-01-30T14:06:11;6.50;90.50
53498;DHT22;39382;47.168;16.008;2024-01-30T14:08:37;6.60;92.50
53498;DHT22;39382;47.168;16.008;2024-01-30T14:11:02;6.60;91.20
53498;DHT22;39382;47.168;16.008;2024-01-30T14:13:28;6.50;91.60
53498;DHT22;39382;47.168;16.008;2024-01-30T14:15:56;6.40;90.80
53498;DHT22;39382;47.168;16.008;2024-01-30T14:18:22;6.40;91.00
53498;DHT22;39382;47.168;16.008;2024-01-30T14:20:47;6.30;91.20
53498;DHT22;39382;47.168;16.008;2024-01-30T14:23:13;6.30;91.00
53498;DHT22;39382;47.168;16.008;2024-01-30T14:25:38;6.50;92.80
53498;DHT22;39382;47.168;16.008;2024-01-30T14:28:04;6.50;91.50
53498;DHT22;39382;47.168;16.008;2024-01-30T14:30:30;6.40;91.40
53498;DHT22;39382;47.168;16.008;2024-01-30T14:32:56;6.40;91.30
53498;DHT22;39382;47.168;16.008;2024-01-30T14:35:21;6.30;91.70
53498;DHT22;39382;47.168;16.008;2024-01-30T14:37:47;6.20;91.80
53498;DHT22;39382;47.168;16.008;2024-01-30T14:40:13;6.10;91.80
53498;DHT22;39382;47.168;16.008;2024-01-30T14:42:38;6.00;91.90
53498;DHT22;39382;47.168;16.008;2024-01-30T14:45:06;5.90;91.90
53498;DHT22;39382;47.168;16.008;2024-01-30T14:47:32;5.80;91.90
53498;DHT22;39382;47.168;16.008;2024-01-30T14:49:58;5.70;92.10
53498;DHT22;39382;47.168;16.008;2024-01-30T14:52:24;5.60;92.30
53498;DHT22;39382;47.168;16.008;2024-01-30T14:54:49;5.50;92.40
53498;DHT22;39382;47.168;16.008;2024-01-30T14:57:15;5.50;92.50
53498;DHT22;39382;47.168;16.008;2024-01-30T14:59:41;5.40;92.70
53498;DHT22;39382;47.168;16.008;2024-01-30T15:02:06;5.30;92.80
53498;DHT22;39382;47.168;16.008;2024-01-30T15:04:32;5.20;92.80
53498;DHT22;39382;47.168;16.008;2024-01-30T15:06:58;5.10;93.00
53498;DHT22;39382;47.168;16.008;2024-01-30T15:09:24;5.10;93.20
53498;DHT22;39382;47.168;16.008;2024-01-30T15:11:51;5.00;93.30
53498;DHT22;39382;47.168;16.008;2024-01-30T15:14:17;4.90;93.40
53498;DHT22;39382;47.168;16.008;2024-01-30T15:16:43;4.80;93.50
53498;DHT22;39382;47.168;16.008;2024-01-30T15:19:09;4.70;93.80
53498;DHT22;39382;47.168;16.008;2024-01-30T15:21:34;4.60;94.10
53498;DHT22;39382;47.168;16.008;2024-01-30T15:24:01;4.50;94.30